CheckWX is a tool to help pilots better visualize weather data.  It is not intended as a substitute for an official pre-flight weather briefing.

05:18:24 UTC

BIEG METAR
Egilsstaðir Airport
Egilsstaðir, Iceland
Current

1 hour ago

BIEG 200400Z 15008KT 8000 -RA SCT040 BKN047 02/M02 Q0997
Observed
Feb-20 @ 04:00 UTC
Wind
  • 150° at 8 KTS
Visibility
7,998 meters
Flight Rules
MVFR
Conditions
Light Rain
Cloud Levels
  • Scattered at 4,000' AGL
  • Broken at 4,700' AGL
Temperature
C / 36°F
Dewpoint
-2°C / 28°F
Humidity
75%
Altimeter
29.44" Hg
Pressure
996.92 hPa
Previous

2 hours ago

BIEG 200300Z 13007KT 7000 -RA SCT034 BKN040 02/M02 Q0999
Observed
Feb-20 @ 03:00 UTC
Wind
  • 130° at 7 KTS
Visibility
7,001 meters
Flight Rules
MVFR
Conditions
Light Rain
Cloud Levels
  • Scattered at 3,400' AGL
  • Broken at 4,000' AGL
Temperature
C / 36°F
Dewpoint
-2°C / 28°F
Humidity
75%
Altimeter
29.5" Hg
Pressure
998.92 hPa
Previous

3 hours ago

BIEG 200200Z 15004KT 7000 -SG SCT028 BKN033 01/M02 Q1000
Observed
Feb-20 @ 02:00 UTC
Wind
  • 150° at 4 KTS
Visibility
7,001 meters
Flight Rules
MVFR
Conditions
Light Snow grains
Cloud Levels
  • Scattered at 2,800' AGL
  • Broken at 3,300' AGL
Temperature
C / 34°F
Dewpoint
-2°C / 28°F
Humidity
81%
Altimeter
29.53" Hg
Pressure
999.92 hPa